createdAt,value
2019-01-18T00:00:10.767Z,8.27
2019-01-18T00:02:15.187Z,6.13
2019-01-18T00:04:16.112Z,5.80
2019-01-18T00:06:17.035Z,7.17
2019-01-18T00:08:17.967Z,7.00
2019-01-18T00:10:19.013Z,7.00
2019-01-18T00:12:20.034Z,7.47
2019-01-18T00:14:20.961Z,7.43
2019-01-18T00:16:22.006Z,5.90
2019-01-18T00:18:22.841Z,7.67
2019-01-18T00:20:23.688Z,7.17
2019-01-18T00:22:24.576Z,6.53
2019-01-18T00:24:25.408Z,5.80
2019-01-18T00:26:26.310Z,8.80
2019-01-18T00:28:27.329Z,9.43
2019-01-18T00:30:28.325Z,5.10
2019-01-18T00:32:29.232Z,8.83
2019-01-18T00:34:30.366Z,6.73
2019-01-18T00:36:31.285Z,5.87
2019-01-18T00:38:32.195Z,7.13
2019-01-18T00:40:33.253Z,7.60
2019-01-18T00:42:34.163Z,6.40
2019-01-18T00:44:35.073Z,6.03
2019-01-18T00:46:36.124Z,5.57
2019-01-18T00:48:36.965Z,6.37
2019-01-18T00:50:37.820Z,7.13
2019-01-18T00:52:38.648Z,7.10
2019-01-18T00:54:39.477Z,5.43
2019-01-18T00:56:40.326Z,6.57
2019-01-18T00:58:41.164Z,6.17
2019-01-18T01:00:42.004Z,5.37
2019-01-18T01:02:42.866Z,7.23
2019-01-18T01:04:43.692Z,6.93
2019-01-18T01:06:44.530Z,5.63
2019-01-18T01:08:45.476Z,7.80
2019-01-18T01:10:46.312Z,7.17
2019-01-18T01:12:47.140Z,6.97
2019-01-18T01:14:47.984Z,7.43
2019-01-18T01:16:49.121Z,6.73
2019-01-18T01:18:50.068Z,5.53
2019-01-18T01:20:51.552Z,10.03
2019-01-18T01:22:52.392Z,6.63
2019-01-18T01:24:53.236Z,6.40
2019-01-18T01:26:54.077Z,5.40
2019-01-18T01:28:55.076Z,7.13
2019-01-18T01:30:55.928Z,6.30
2019-01-18T01:32:56.761Z,5.00
2019-01-18T01:34:57.604Z,5.10
2019-01-18T01:36:58.445Z,6.97
2019-01-18T01:38:59.279Z,4.80
2019-01-18T01:41:00.128Z,6.77
2019-01-18T01:43:00.968Z,6.40
2019-01-18T01:45:01.888Z,6.97
2019-01-18T01:47:02.866Z,6.57
2019-01-18T01:49:03.700Z,6.87
2019-01-18T01:51:04.551Z,6.40
2019-01-18T01:53:05.381Z,7.60
2019-01-18T01:55:06.416Z,5.10
2019-01-18T01:57:07.260Z,7.30
2019-01-18T01:59:08.100Z,6.00
2019-01-18T02:01:08.955Z,5.57
2019-01-18T02:03:09.772Z,6.23
2019-01-18T02:05:10.608Z,5.87
2019-01-18T02:07:11.469Z,5.47
2019-01-18T02:09:12.301Z,5.30
2019-01-18T02:11:13.376Z,6.47
2019-01-18T02:13:14.212Z,7.90
2019-01-18T02:15:15.052Z,6.43
2019-01-18T02:17:15.924Z,5.90
2019-01-18T02:19:17.104Z,6.00
2019-01-18T02:21:17.932Z,7.10
2019-01-18T02:23:18.796Z,6.43
2019-01-18T02:25:19.876Z,6.97
2019-01-18T02:27:20.714Z,7.33
2019-01-18T02:29:21.563Z,8.47
2019-01-18T02:31:22.648Z,7.50
2019-01-18T02:33:23.497Z,7.93
2019-01-18T02:35:24.357Z,7.10
2019-01-18T02:37:25.156Z,6.73
2019-01-18T02:39:26.013Z,7.93
2019-01-18T02:41:26.840Z,7.43
2019-01-18T02:43:27.916Z,6.43
2019-01-18T02:45:28.758Z,5.80
2019-01-18T02:47:29.620Z,6.77
2019-01-18T02:49:30.436Z,6.40
2019-01-18T02:51:31.277Z,8.00
2019-01-18T02:53:32.407Z,8.47
2019-01-18T02:55:33.233Z,8.63
2019-01-18T02:57:34.356Z,8.87
2019-01-18T02:59:35.620Z,8.47
2019-01-18T03:01:36.744Z,10.93
2019-01-18T03:03:37.905Z,7.67
2019-01-18T03:05:38.742Z,5.97
2019-01-18T03:07:39.564Z,7.90
2019-01-18T03:09:40.417Z,11.20
2019-01-18T03:11:41.524Z,5.50
2019-01-18T03:13:42.376Z,9.00
2019-01-18T03:15:43.223Z,6.47
2019-01-18T03:17:44.097Z,6.63
2019-01-18T03:19:44.929Z,11.50
2019-01-18T03:21:45.757Z,8.70
2019-01-18T03:23:46.967Z,9.27
2019-01-18T03:25:47.795Z,10.60
2019-01-18T03:27:48.620Z,9.03
2019-01-18T03:29:49.473Z,8.10
2019-01-18T03:31:50.317Z,8.67
2019-01-18T03:33:51.400Z,7.30
2019-01-18T03:35:52.563Z,6.40
2019-01-18T03:37:53.409Z,9.67
2019-01-18T03:39:54.240Z,7.97
2019-01-18T03:41:55.084Z,6.73
2019-01-18T03:43:55.929Z,11.37
2019-01-18T03:45:56.793Z,7.10
2019-01-18T03:47:57.950Z,7.03
2019-01-18T03:49:58.809Z,8.77
2019-01-18T03:51:59.640Z,9.53
2019-01-18T03:54:00.768Z,8.37
2019-01-18T03:56:01.599Z,8.20
2019-01-18T03:58:02.748Z,7.23
2019-01-18T04:00:03.599Z,7.63
2019-01-18T04:02:04.442Z,10.80
2019-01-18T04:04:05.271Z,9.17
2019-01-18T04:06:06.116Z,7.03
2019-01-18T04:08:07.313Z,6.93
2019-01-18T04:10:08.141Z,7.57
2019-01-18T04:12:09.161Z,8.90
2019-01-18T04:14:10.318Z,7.83
2019-01-18T04:16:11.458Z,8.87
2019-01-18T04:18:12.312Z,5.97
2019-01-18T04:20:13.189Z,7.50
2019-01-18T04:22:14.041Z,7.13
2019-01-18T04:24:15.200Z,7.97
2019-01-18T04:26:16.361Z,5.63
2019-01-18T04:28:17.205Z,9.60
2019-01-18T04:30:18.316Z,7.73
2019-01-18T04:32:19.144Z,7.20
2019-01-18T04:34:20.001Z,8.33
2019-01-18T04:36:20.838Z,6.53
2019-01-18T04:38:21.669Z,8.13
2019-01-18T04:40:22.515Z,9.57
2019-01-18T04:42:23.355Z,5.93
2019-01-18T04:44:24.193Z,6.87
2019-01-18T04:46:34.208Z,9.60
2019-01-18T04:48:35.344Z,7.93
2019-01-18T04:50:36.478Z,7.07
2019-01-18T04:52:37.319Z,8.10
2019-01-18T04:54:38.165Z,6.57
2019-01-18T04:56:39.008Z,6.63
2019-01-18T04:58:39.845Z,6.50
2019-01-18T05:00:41.643Z,8.53
2019-01-18T05:02:42.717Z,7.97
2019-01-18T05:04:43.548Z,7.47
2019-01-18T05:06:44.393Z,7.47
2019-01-18T05:08:45.256Z,9.43
2019-01-18T05:10:46.358Z,6.97
2019-01-18T05:12:47.200Z,7.63
2019-01-18T05:14:48.032Z,8.33
2019-01-18T05:16:48.855Z,8.83
2019-01-18T05:18:49.712Z,8.43
2019-01-18T05:20:50.554Z,7.37
2019-01-18T05:22:51.403Z,11.30
2019-01-18T05:24:52.241Z,7.00
2019-01-18T05:26:53.080Z,9.83
2019-01-18T05:28:54.040Z,8.03
2019-01-18T05:30:54.873Z,5.83
2019-01-18T05:32:55.704Z,8.33
2019-01-18T05:34:56.545Z,7.93
2019-01-18T05:36:57.376Z,9.70
2019-01-18T05:38:58.204Z,8.47
2019-01-18T05:40:59.052Z,8.43
2019-01-18T05:43:00.176Z,9.00
2019-01-18T05:45:01.024Z,7.60
2019-01-18T05:47:01.870Z,9.70
2019-01-18T05:49:02.693Z,8.53
2019-01-18T05:51:03.567Z,7.70
2019-01-18T05:53:06.040Z,7.40
2019-01-18T05:55:06.869Z,10.83
2019-01-18T05:57:07.976Z,7.77
2019-01-18T05:59:08.816Z,11.87
2019-01-18T06:01:11.356Z,8.60
2019-01-18T06:03:12.192Z,8.93
2019-01-18T06:05:13.329Z,8.30
2019-01-18T06:07:14.188Z,7.77
2019-01-18T06:09:15.008Z,7.50
2019-01-18T06:11:15.859Z,8.63
2019-01-18T06:13:16.720Z,6.47
2019-01-18T06:15:17.556Z,8.47
2019-01-18T06:17:18.404Z,8.73
2019-01-18T06:19:19.227Z,7.47
2019-01-18T06:21:21.520Z,8.83
2019-01-18T06:23:22.458Z,10.33
2019-01-18T06:25:23.320Z,9.17
2019-01-18T06:27:24.149Z,7.77
2019-01-18T06:29:25.311Z,8.50
2019-01-18T06:31:26.552Z,9.43
2019-01-18T06:33:27.392Z,9.30
2019-01-18T06:35:28.265Z,7.87
2019-01-18T06:37:29.149Z,9.97
2019-01-18T06:39:31.173Z,10.00
2019-01-18T06:41:38.433Z,11.07
2019-01-18T06:43:39.276Z,8.47
2019-01-18T06:45:40.116Z,10.40
2019-01-18T06:47:40.956Z,8.47
2019-01-18T06:49:41.792Z,9.67
2019-01-18T06:51:42.640Z,9.13
2019-01-18T06:53:43.488Z,8.20
2019-01-18T06:55:44.429Z,11.47
2019-01-18T06:57:45.244Z,10.97
2019-01-18T06:59:46.077Z,11.03
2019-01-18T07:01:47.161Z,9.67
2019-01-18T07:03:48.255Z,10.67
2019-01-18T07:05:49.100Z,10.73
2019-01-18T07:07:49.948Z,8.20
2019-01-18T07:09:51.080Z,10.27
2019-01-18T07:11:51.919Z,10.23
2019-01-18T07:13:52.750Z,12.13
2019-01-18T07:15:53.572Z,11.03
2019-01-18T07:17:54.419Z,9.53
2019-01-18T07:19:55.260Z,13.07
2019-01-18T07:21:56.397Z,11.90
2019-01-18T07:23:57.224Z,10.67
2019-01-18T07:25:58.052Z,11.07
2019-01-18T07:27:58.900Z,11.10
2019-01-18T07:29:59.729Z,9.93
2019-01-18T07:32:00.843Z,8.27
2019-01-18T07:34:01.720Z,11.67
2019-01-18T07:36:02.552Z,11.50
2019-01-18T07:38:03.665Z,12.23
2019-01-18T07:40:04.529Z,9.27
2019-01-18T07:42:05.625Z,12.50
2019-01-18T07:44:06.469Z,12.37
2019-01-18T07:46:07.591Z,10.87
2019-01-18T07:48:08.421Z,12.83
2019-01-18T07:50:09.268Z,11.47
2019-01-18T07:52:10.113Z,10.53
2019-01-18T07:54:10.953Z,11.23
2019-01-18T07:56:11.789Z,10.50
2019-01-18T07:58:12.897Z,14.27
2019-01-18T08:00:13.745Z,13.47
2019-01-18T08:02:14.865Z,12.40
2019-01-18T08:04:15.711Z,11.03
2019-01-18T08:06:16.563Z,12.80
2019-01-18T08:08:17.389Z,14.30
2019-01-18T08:10:18.212Z,11.80
2019-01-18T08:12:19.068Z,10.70
2019-01-18T08:14:19.901Z,18.33
2019-01-18T08:16:20.744Z,12.77
2019-01-18T08:18:21.592Z,11.43
2019-01-18T08:20:22.802Z,12.63
2019-01-18T08:22:23.913Z,11.13
2019-01-18T08:24:24.750Z,12.73
2019-01-18T08:26:25.591Z,10.80
2019-01-18T08:28:26.421Z,12.33
2019-01-18T08:30:27.244Z,10.10
2019-01-18T08:32:28.102Z,16.60
2019-01-18T08:34:28.924Z,13.00
2019-01-18T08:36:29.764Z,11.43
2019-01-18T08:38:30.917Z,12.07
2019-01-18T08:40:31.754Z,10.67
2019-01-18T08:42:32.580Z,12.60
2019-01-18T08:44:33.424Z,13.03
2019-01-18T08:46:34.534Z,14.73
2019-01-18T08:48:35.360Z,11.77
2019-01-18T08:50:36.217Z,11.23
2019-01-18T08:52:37.057Z,16.53
2019-01-18T08:54:38.447Z,12.37
2019-01-18T08:56:39.434Z,11.93
2019-01-18T08:58:40.548Z,13.73
2019-01-18T09:00:41.397Z,13.17
2019-01-18T09:02:42.530Z,11.90
2019-01-18T09:04:43.363Z,11.30
2019-01-18T09:06:44.199Z,12.03
2019-01-18T09:08:45.032Z,12.40
2019-01-18T09:10:46.629Z,16.47
2019-01-18T09:12:47.517Z,12.67
2019-01-18T09:14:48.336Z,15.07
2019-01-18T09:16:49.206Z,10.23
2019-01-18T09:18:50.050Z,15.27
2019-01-18T09:20:51.032Z,15.73
2019-01-18T09:22:51.888Z,11.00
2019-01-18T09:24:52.722Z,12.87
2019-01-18T09:26:53.544Z,12.47
2019-01-18T09:28:54.400Z,10.90
2019-01-18T09:30:55.237Z,11.70
2019-01-18T09:32:56.057Z,12.37
2019-01-18T09:34:56.908Z,14.13
2019-01-18T09:36:58.144Z,10.17
2019-01-18T09:38:58.988Z,11.77
2019-01-18T09:40:59.847Z,12.53
2019-01-18T09:43:00.685Z,10.77
2019-01-18T09:45:01.865Z,9.97
2019-01-18T09:47:02.721Z,13.97
2019-01-18T09:49:03.564Z,12.77
2019-01-18T09:51:04.400Z,15.37
2019-01-18T09:53:05.244Z,15.57
2019-01-18T09:55:06.440Z,15.40
2019-01-18T09:57:07.268Z,14.00
2019-01-18T09:59:08.424Z,13.50
2019-01-18T10:01:09.256Z,12.73
2019-01-18T10:03:10.085Z,10.57
2019-01-18T10:05:10.937Z,11.43
2019-01-18T10:07:12.048Z,13.17
2019-01-18T10:09:12.879Z,11.07
2019-01-18T10:11:13.724Z,16.20
2019-01-18T10:13:14.560Z,11.93
2019-01-18T10:15:15.397Z,12.97
2019-01-18T10:17:16.249Z,14.33
2019-01-18T10:19:17.351Z,14.73
2019-01-18T10:21:18.188Z,14.10
2019-01-18T10:23:19.344Z,13.50
2019-01-18T10:25:20.192Z,15.73
2019-01-18T10:27:23.929Z,13.70
2019-01-18T10:29:28.179Z,11.03
2019-01-18T10:31:26.944Z,23.23
2019-01-18T10:33:27.776Z,16.57
2019-01-18T10:35:28.957Z,12.60
2019-01-18T10:37:29.901Z,12.83
2019-01-18T10:39:30.737Z,10.73
2019-01-18T10:41:31.690Z,11.17
2019-01-18T10:43:32.835Z,9.83
2019-01-18T10:45:33.947Z,14.10
2019-01-18T10:47:34.780Z,13.03
2019-01-18T10:49:35.893Z,12.77
2019-01-18T10:51:36.744Z,10.97
2019-01-18T10:53:37.604Z,12.27
2019-01-18T10:55:38.454Z,11.77
2019-01-18T10:57:39.773Z,11.50
2019-01-18T10:59:40.608Z,10.40
2019-01-18T11:01:41.561Z,14.03
2019-01-18T11:03:42.412Z,11.10
2019-01-18T11:05:43.242Z,11.33
2019-01-18T11:07:44.540Z,11.67
2019-01-18T11:09:45.401Z,12.90
2019-01-18T11:11:46.259Z,10.87
2019-01-18T11:13:47.088Z,12.23
2019-01-18T11:15:47.912Z,10.80
2019-01-18T11:17:48.774Z,12.63
2019-01-18T11:19:49.620Z,10.50
2019-01-18T11:21:50.556Z,9.83
2019-01-18T11:23:52.252Z,11.07
2019-01-18T11:25:53.353Z,12.40
2019-01-18T11:27:54.212Z,11.90
2019-01-18T11:29:55.052Z,13.07
2019-01-18T11:31:55.890Z,11.20
2019-01-18T11:33:56.736Z,10.53
2019-01-18T11:35:57.644Z,11.70
2019-01-18T11:37:58.473Z,11.53
2019-01-18T11:39:59.429Z,11.00
2019-01-18T11:42:00.256Z,12.00
2019-01-18T11:44:01.113Z,9.53
2019-01-18T11:46:01.948Z,10.20
2019-01-18T11:48:02.787Z,11.00
2019-01-18T11:50:03.653Z,9.53
2019-01-18T11:52:04.480Z,7.60
2019-01-18T11:54:05.324Z,8.93
2019-01-18T11:56:06.180Z,10.27
2019-01-18T11:58:07.017Z,5.53
2019-01-18T12:00:09.790Z,7.17
2019-01-18T12:02:15.182Z,7.73
2019-01-18T12:04:13.358Z,5.67
2019-01-18T12:06:14.196Z,6.97
2019-01-18T12:08:15.356Z,6.93
2019-01-18T12:10:16.212Z,6.57
2019-01-18T12:12:17.037Z,6.53
2019-01-18T12:14:17.869Z,5.13
2019-01-18T12:16:18.718Z,12.10
2019-01-18T12:18:19.553Z,7.60
2019-01-18T12:20:20.472Z,6.87
2019-01-18T12:22:21.316Z,7.90
2019-01-18T12:24:22.157Z,8.10
2019-01-18T12:26:23.005Z,8.50
2019-01-18T12:28:23.845Z,8.83
2019-01-18T12:30:24.684Z,9.33
2019-01-18T12:32:28.838Z,8.50
2019-01-18T12:34:28.724Z,10.30
2019-01-18T12:36:29.880Z,10.30
2019-01-18T12:38:30.734Z,8.60
2019-01-18T12:40:31.591Z,7.73
2019-01-18T12:42:32.427Z,9.10
2019-01-18T12:44:33.352Z,12.10
2019-01-18T12:46:34.200Z,7.20
2019-01-18T12:48:35.388Z,9.07
2019-01-18T12:50:36.346Z,8.63
2019-01-18T12:52:37.181Z,7.97
2019-01-18T12:54:38.031Z,9.77
2019-01-18T12:56:38.886Z,10.13
2019-01-18T12:58:41.013Z,7.00
2019-01-18T13:00:41.877Z,9.90
2019-01-18T13:02:42.989Z,8.77
2019-01-18T13:04:43.821Z,11.73
2019-01-18T13:06:44.673Z,7.50
2019-01-18T13:08:45.500Z,7.37
2019-01-18T13:10:46.329Z,7.40
2019-01-18T13:12:47.200Z,8.47
2019-01-18T13:14:48.130Z,10.43
2019-01-18T13:16:48.996Z,9.50
2019-01-18T13:18:49.828Z,10.30
2019-01-18T13:20:51.176Z,9.97
2019-01-18T13:22:52.021Z,9.53
2019-01-18T13:24:53.104Z,9.40
2019-01-18T13:26:53.940Z,11.60
2019-01-18T13:28:54.793Z,11.23
2019-01-18T13:30:55.628Z,8.90
2019-01-18T13:32:56.528Z,7.57
2019-01-18T13:34:57.365Z,9.53
2019-01-18T13:36:58.193Z,8.57
2019-01-18T13:38:59.049Z,9.37
2019-01-18T13:40:59.881Z,9.97
2019-01-18T13:43:00.712Z,10.47
2019-01-18T13:45:01.558Z,9.13
2019-01-18T13:47:02.404Z,8.77
2019-01-18T13:49:03.258Z,11.30
2019-01-18T13:51:04.108Z,12.33
2019-01-18T13:53:04.940Z,11.10
2019-01-18T20:49:03.957Z,34.77
2019-01-18T20:51:04.880Z,36.03
2019-01-18T20:53:05.712Z,39.80
2019-01-18T20:55:06.660Z,39.13
2019-01-18T20:57:07.614Z,36.13
2019-01-18T20:59:08.892Z,37.83
2019-01-18T21:01:09.798Z,36.07
2019-01-18T21:03:10.693Z,36.97
2019-01-18T21:05:11.521Z,33.27
2019-01-18T21:07:12.372Z,37.07
2019-01-18T21:09:13.302Z,32.67
2019-01-18T21:11:14.137Z,38.80
2019-01-18T21:13:14.993Z,38.37
2019-01-18T21:15:15.842Z,35.03
2019-01-18T21:17:17.137Z,34.80
2019-01-18T21:19:17.973Z,36.87
2019-01-18T21:21:18.946Z,35.97
2019-01-18T21:23:19.845Z,35.37
2019-01-18T21:25:20.713Z,35.60
2019-01-18T21:27:21.632Z,37.37
2019-01-18T21:29:22.575Z,31.23
2019-01-18T21:31:23.493Z,32.90
2019-01-18T21:33:24.450Z,33.73
2019-01-18T21:35:25.408Z,35.97
2019-01-18T21:37:26.317Z,32.10
2019-01-18T21:39:27.233Z,35.93
2019-01-18T21:41:28.080Z,34.10
2019-01-18T21:43:28.930Z,35.50
2019-01-18T21:45:29.772Z,33.13
2019-01-18T21:47:30.600Z,36.20
2019-01-18T21:49:31.453Z,32.60
2019-01-18T21:51:32.292Z,32.47
2019-01-18T21:53:33.397Z,34.70
2019-01-18T21:55:34.342Z,35.87
2019-01-18T21:57:35.236Z,36.03
2019-01-18T21:59:36.068Z,33.50
2019-01-18T22:01:36.916Z,35.23
2019-01-18T22:03:37.855Z,33.07
2019-01-18T22:05:38.692Z,33.53
2019-01-18T22:07:39.532Z,34.63
2019-01-18T22:09:40.364Z,35.40
2019-01-18T22:11:41.681Z,29.73
2019-01-18T22:13:42.508Z,33.57
2019-01-18T22:15:43.344Z,33.47
2019-01-18T22:17:44.288Z,33.40
2019-01-18T22:19:45.233Z,31.50
2019-01-18T22:21:46.056Z,30.63
2019-01-18T22:23:47.003Z,32.73
2019-01-18T22:25:47.916Z,29.57
2019-01-18T22:27:48.785Z,32.27
2019-01-18T22:29:49.635Z,32.93
2019-01-18T22:31:50.516Z,35.77
2019-01-18T22:33:51.382Z,35.80
2019-01-18T22:35:52.569Z,35.93
2019-01-18T22:37:53.816Z,34.30
2019-01-18T22:39:54.671Z,36.00
2019-01-18T22:41:55.488Z,53.23
2019-01-18T22:43:56.324Z,67.37
2019-01-18T22:45:57.169Z,55.87
2019-01-18T22:47:58.024Z,44.77
2019-01-18T22:49:58.952Z,38.00
2019-01-18T22:51:59.876Z,41.53
2019-01-18T22:54:00.733Z,36.77
2019-01-18T22:56:01.557Z,43.53
2019-01-18T22:58:02.390Z,36.90
2019-01-18T23:00:05.128Z,39.63
2019-01-18T23:02:05.960Z,34.67
2019-01-18T23:04:06.800Z,35.33
2019-01-18T23:06:07.641Z,37.93
2019-01-18T23:08:08.508Z,33.93
2019-01-18T23:10:09.345Z,44.17
2019-01-18T23:12:10.552Z,41.20
2019-01-18T23:14:11.392Z,33.83
2019-01-18T23:16:12.282Z,35.63
2019-01-18T23:18:13.177Z,35.77
2019-01-18T23:20:14.009Z,31.03
2019-01-18T23:22:14.868Z,30.37
2019-01-18T23:24:15.700Z,33.70
2019-01-18T23:26:17.678Z,35.47
2019-01-18T23:28:18.500Z,35.33
2019-01-18T23:30:19.348Z,34.33
2019-01-18T23:32:20.185Z,33.27
2019-01-18T23:34:21.028Z,28.40
2019-01-18T23:36:21.881Z,34.33
2019-01-18T23:38:23.000Z,30.80
2019-01-18T23:40:23.857Z,30.37
2019-01-18T23:42:25.359Z,33.30
2019-01-18T23:44:26.331Z,36.43
2019-01-18T23:46:27.185Z,38.90
2019-01-18T23:48:28.301Z,36.60
2019-01-18T23:50:29.128Z,35.20
2019-01-18T23:52:29.999Z,36.13
2019-01-18T23:54:30.832Z,34.00
2019-01-18T23:56:31.675Z,35.20
2019-01-18T23:58:32.524Z,35.53
